Time;durP1;ratioP1;P1;durP2;ratioP2;P2;SDS_P1;SDS_P2;PMS_P1;PMS_P2;Temp;Humidity;BMP_temperature;BMP_pressure;BME280_temperature;BME280_humidity;BME280_pressure;Samples;Min_cycle;Max_cycle;Signal;HPM_P1;HPM_P2
2023/10/30 00:01:29;;;;;;;15.52;8.23;;;10.80;99.90;;;;;;5134108;27;20100;-74
2023/10/30 00:03:55;;;;;;;11.73;8.00;;;10.80;99.90;;;;;;5133230;27;20027;-74
2023/10/30 00:06:21;;;;;;;10.02;7.40;;;10.80;99.90;;;;;;5115625;27;20023;-73
2023/10/30 00:08:46;;;;;;;14.75;8.43;;;10.80;99.90;;;;;;5133581;27;20035;-74
2023/10/30 00:11:12;;;;;;;13.52;8.40;;;10.80;99.90;;;;;;5133491;27;20110;-74
2023/10/30 00:13:37;;;;;;;13.13;8.40;;;10.80;99.90;;;;;;5133347;27;20076;-74
2023/10/30 00:16:03;;;;;;;12.50;8.02;;;10.80;99.90;;;;;;5133477;27;20471;-74
2023/10/30 00:18:29;;;;;;;13.05;8.50;;;10.80;99.90;;;;;;5133625;27;20379;-73
2023/10/30 00:20:55;;;;;;;15.90;8.63;;;10.80;99.90;;;;;;5132956;28;20027;-74
2023/10/30 00:23:20;;;;;;;13.20;8.15;;;10.80;99.90;;;;;;5133283;28;20031;-74
2023/10/30 00:25:46;;;;;;;12.48;8.10;;;10.80;99.90;;;;;;5133357;28;20073;-74
2023/10/30 00:28:11;;;;;;;10.10;8.27;;;10.80;99.90;;;;;;5132612;28;20049;-74
2023/10/30 00:30:37;;;;;;;13.80;8.18;;;10.80;99.90;;;;;;5132437;28;20343;-74
2023/10/30 00:33:03;;;;;;;14.52;8.07;;;10.80;99.90;;;;;;5131513;28;20023;-74
2023/10/30 00:35:28;;;;;;;12.18;8.18;;;10.80;99.90;;;;;;5115192;28;20499;-73
2023/10/30 00:37:54;;;;;;;11.20;7.65;;;10.80;99.90;;;;;;5133256;28;20019;-77
2023/10/30 00:40:20;;;;;;;12.18;7.22;;;10.80;99.90;;;;;;5133393;28;20035;-74
2023/10/30 00:42:45;;;;;;;9.35;7.30;;;10.80;99.90;;;;;;5133500;28;20503;-73
2023/10/30 00:45:11;;;;;;;9.70;7.15;;;10.70;99.90;;;;;;5132852;28;20360;-73
2023/10/30 00:47:38;;;;;;;9.20;7.53;;;10.80;99.90;;;;;;5133692;28;20038;-74
2023/10/30 00:50:10;;;;;;;13.30;7.10;;;10.80;99.90;;;;;;5133167;28;20416;-73
2023/10/30 00:52:35;;;;;;;11.43;6.93;;;10.80;99.90;;;;;;5133516;28;20028;-74
2023/10/30 00:55:01;;;;;;;10.50;7.85;;;10.70;99.90;;;;;;5132670;28;20027;-74
2023/10/30 00:57:27;;;;;;;12.00;7.30;;;10.70;99.90;;;;;;5133121;28;20047;-73
2023/10/30 00:59:53;;;;;;;10.75;6.97;;;10.70;99.90;;;;;;5133212;28;20027;-73
2023/10/30 01:02:18;;;;;;;9.70;6.78;;;10.70;99.90;;;;;;5132981;28;20024;-73
2023/10/30 01:04:44;;;;;;;12.23;7.43;;;10.70;99.90;;;;;;5133143;28;20027;-73
2023/10/30 01:07:10;;;;;;;9.82;7.10;;;10.70;99.90;;;;;;5132748;28;20038;-73
2023/10/30 01:09:36;;;;;;;10.80;7.57;;;10.60;99.90;;;;;;5133356;28;20027;-72
2023/10/30 01:12:01;;;;;;;11.75;6.93;;;10.60;99.90;;;;;;5133033;28;20023;-73
2023/10/30 01:14:27;;;;;;;16.05;7.75;;;10.60;99.90;;;;;;5133114;28;20450;-72
2023/10/30 01:16:52;;;;;;;13.10;6.88;;;10.60;99.90;;;;;;5133208;28;20102;-74
2023/10/30 01:19:18;;;;;;;12.48;7.43;;;10.60;99.90;;;;;;5133068;28;20053;-74
2023/10/30 01:21:45;;;;;;;12.73;7.07;;;10.60;99.90;;;;;;5136213;28;20372;-73
2023/10/30 01:24:11;;;;;;;16.13;7.28;;;10.60;99.90;;;;;;5136333;27;20459;-72
2023/10/30 01:26:38;;;;;;;10.63;6.65;;;10.60;99.90;;;;;;5137859;27;20066;-73
2023/10/30 01:29:04;;;;;;;10.35;7.00;;;10.60;99.90;;;;;;5137062;27;20056;-73
2023/10/30 01:31:30;;;;;;;9.95;7.15;;;10.60;99.90;;;;;;5136971;27;20019;-74
2023/10/30 01:33:56;;;;;;;11.63;8.05;;;10.60;99.90;;;;;;5137348;27;20031;-73
2023/10/30 01:36:22;;;;;;;13.55;6.57;;;10.50;99.90;;;;;;5137022;27;20110;-73
2023/10/30 01:38:47;;;;;;;9.75;7.13;;;10.50;99.90;;;;;;5136841;27;20031;-73
2023/10/30 01:41:13;;;;;;;10.95;7.43;;;10.50;99.90;;;;;;5136087;27;20034;-73
2023/10/30 01:43:39;;;;;;;12.27;7.25;;;10.50;99.90;;;;;;5136388;27;20083;-72
2023/10/30 01:46:08;;;;;;;12.00;7.13;;;10.50;99.90;;;;;;5136239;27;20039;-72
2023/10/30 01:48:34;;;;;;;9.63;6.85;;;10.50;99.90;;;;;;5136306;27;20379;-73
2023/10/30 01:51:02;;;;;;;10.68;7.07;;;10.50;99.90;;;;;;5136138;27;20015;-74
2023/10/30 01:53:29;;;;;;;11.05;7.13;;;10.40;99.90;;;;;;5118041;27;20064;-72
2023/10/30 01:55:56;;;;;;;10.38;6.80;;;10.40;99.90;;;;;;5136170;27;20357;-73
2023/10/30 01:58:25;;;;;;;11.50;7.20;;;10.50;99.90;;;;;;5135401;27;20047;-72
2023/10/30 02:00:53;;;;;;;13.27;7.43;;;10.50;99.90;;;;;;5136290;27;20065;-73
2023/10/30 02:03:19;;;;;;;11.57;6.57;;;10.40;99.90;;;;;;5135756;27;20146;-73
2023/10/30 02:05:44;;;;;;;10.20;7.00;;;10.40;99.90;;;;;;5136075;27;20106;-73
2023/10/30 02:08:11;;;;;;;10.15;6.97;;;10.40;99.90;;;;;;5135540;27;20034;-73
2023/10/30 02:10:37;;;;;;;12.77;7.30;;;10.40;99.90;;;;;;5136231;27;20487;-74
2023/10/30 02:13:07;;;;;;;10.48;7.07;;;10.40;99.90;;;;;;5135367;27;20023;-75
2023/10/30 02:15:33;;;;;;;11.65;6.68;;;10.40;99.90;;;;;;5135895;27;20034;-72
2023/10/30 02:17:59;;;;;;;13.18;7.10;;;10.50;99.90;;;;;;5135967;27;20027;-73
2023/10/30 02:20:25;;;;;;;12.75;7.57;;;10.40;99.90;;;;;;5135624;27;20019;-73
2023/10/30 02:22:51;;;;;;;11.80;7.15;;;10.50;99.90;;;;;;5135688;27;20024;-74
2023/10/30 02:25:23;;;;;;;10.40;7.13;;;10.50;99.90;;;;;;5135131;27;20035;-73
2023/10/30 02:27:53;;;;;;;11.07;7.00;;;10.50;99.90;;;;;;5132399;27;20023;-75
2023/10/30 02:30:20;;;;;;;12.35;7.05;;;10.50;99.90;;;;;;5135268;27;20027;-74
2023/10/30 02:32:50;;;;;;;12.13;8.02;;;10.50;99.90;;;;;;5135582;27;20027;-73
2023/10/30 02:35:16;;;;;;;11.88;8.05;;;10.50;99.90;;;;;;5134838;27;20054;-73
2023/10/30 02:37:43;;;;;;;12.45;8.15;;;10.50;99.90;;;;;;5135097;27;20028;-74
2023/10/30 02:40:09;;;;;;;13.55;8.13;;;10.50;99.90;;;;;;5134343;27;20107;-72
2023/10/30 02:42:35;;;;;;;11.35;7.60;;;10.50;99.90;;;;;;5135356;27;20028;-73
2023/10/30 02:45:03;;;;;;;9.38;7.40;;;10.50;99.90;;;;;;5135060;27;20035;-72
2023/10/30 02:47:29;;;;;;;13.50;8.55;;;10.50;99.90;;;;;;5134828;27;20031;-72
2023/10/30 02:49:55;;;;;;;14.38;9.68;;;10.50;99.90;;;;;;5135132;27;20026;-72
2023/10/30 02:52:20;;;;;;;12.80;8.88;;;10.50;99.90;;;;;;5134725;27;20084;-72
2023/10/30 02:54:46;;;;;;;12.77;8.98;;;10.50;99.90;;;;;;5135074;27;20034;-73
2023/10/30 02:57:13;;;;;;;13.15;9.27;;;10.60;99.90;;;;;;5134460;27;20047;-74
2023/10/30 02:59:39;;;;;;;15.13;9.30;;;10.50;99.90;;;;;;5134848;27;20459;-72
2023/10/30 03:02:04;;;;;;;17.13;8.98;;;10.50;99.90;;;;;;5134585;27;20031;-73
2023/10/30 03:04:30;;;;;;;12.90;8.77;;;10.50;99.90;;;;;;5135069;27;20023;-72
2023/10/30 03:06:59;;;;;;;11.32;8.40;;;10.50;99.90;;;;;;5135153;27;20114;-72
2023/10/30 03:09:25;;;;;;;16.02;8.77;;;10.50;99.90;;;;;;5134604;27;20034;-74
2023/10/30 03:11:51;;;;;;;14.45;9.13;;;10.50;99.90;;;;;;5134929;27;20076;-72
2023/10/30 03:14:17;;;;;;;13.40;8.35;;;10.40;99.90;;;;;;5134224;27;20031;-73
2023/10/30 03:16:42;;;;;;;13.40;9.43;;;10.50;99.90;;;;;;5135237;27;20472;-73
2023/10/30 03:19:08;;;;;;;12.88;9.55;;;10.40;99.90;;;;;;5134494;27;20019;-74
2023/10/30 03:21:34;;;;;;;12.98;9.40;;;10.40;99.90;;;;;;5134792;27;20055;-73
2023/10/30 03:24:00;;;;;;;11.82;9.70;;;10.40;99.90;;;;;;5134630;27;20054;-73
2023/10/30 03:26:25;;;;;;;12.73;9.93;;;10.50;99.90;;;;;;5134302;27;20446;-72
2023/10/30 03:28:51;;;;;;;15.98;9.57;;;10.40;99.90;;;;;;5134735;27;20023;-72
2023/10/30 03:31:17;;;;;;;12.57;9.82;;;10.50;99.90;;;;;;5134196;27;20027;-73
2023/10/30 03:33:42;;;;;;;15.85;8.90;;;10.40;99.90;;;;;;5134171;27;20034;-73
2023/10/30 03:36:08;;;;;;;13.80;8.68;;;10.50;99.90;;;;;;5133766;27;20042;-76
2023/10/30 03:38:34;;;;;;;14.65;9.35;;;10.40;99.90;;;;;;5134265;27;20015;-71
2023/10/30 03:41:00;;;;;;;13.07;8.00;;;10.50;99.90;;;;;;5134276;27;20367;-72
2023/10/30 03:43:25;;;;;;;11.73;7.40;;;10.40;99.90;;;;;;5133728;27;20452;-72
2023/10/30 03:45:52;;;;;;;11.02;7.65;;;10.40;99.90;;;;;;5134004;27;20034;-72
2023/10/30 03:48:17;;;;;;;8.68;6.32;;;10.40;99.90;;;;;;5114740;27;20027;-73
2023/10/30 03:50:43;;;;;;;10.45;7.43;;;10.40;99.90;;;;;;5134246;27;20351;-74
2023/10/30 03:53:09;;;;;;;9.07;6.97;;;10.40;99.90;;;;;;5133790;27;20034;-74
2023/10/30 03:55:34;;;;;;;9.38;6.65;;;10.30;99.90;;;;;;5134189;27;20114;-74
2023/10/30 03:58:02;;;;;;;12.45;7.00;;;10.30;99.90;;;;;;5115583;27;20050;-73
2023/10/30 04:00:27;;;;;;;9.65;6.18;;;10.30;99.90;;;;;;5133650;27;20091;-73
2023/10/30 04:02:53;;;;;;;10.95;7.20;;;10.30;99.90;;;;;;5134162;27;20055;-73
2023/10/30 04:05:19;;;;;;;7.30;6.30;;;10.20;99.90;;;;;;5133282;27;20467;-74
2023/10/30 04:07:44;;;;;;;11.10;6.30;;;10.20;99.90;;;;;;5134094;27;20030;-73
2023/10/30 04:10:10;;;;;;;10.13;6.47;;;10.20;99.90;;;;;;5133627;27;20054;-76
2023/10/30 04:12:35;;;;;;;10.43;6.95;;;10.20;99.90;;;;;;5134257;27;20034;-73
2023/10/30 04:15:01;;;;;;;7.85;6.65;;;10.20;99.90;;;;;;5133995;27;20495;-73
2023/10/30 04:17:27;;;;;;;9.27;6.47;;;10.20;99.90;;;;;;5133560;27;20050;-73
2023/10/30 04:19:52;;;;;;;11.57;6.78;;;10.20;99.90;;;;;;5134070;27;20019;-73
2023/10/30 04:22:18;;;;;;;8.30;6.78;;;10.20;99.90;;;;;;5133162;28;20026;-73
2023/10/30 04:24:43;;;;;;;12.52;6.90;;;10.20;99.90;;;;;;5135018;28;20034;-72
2023/10/30 04:27:10;;;;;;;11.38;6.75;;;10.20;99.90;;;;;;5138515;28;20051;-77
2023/10/30 04:29:36;;;;;;;9.55;6.50;;;10.20;99.90;;;;;;5137383;28;20048;-72
2023/10/30 04:32:01;;;;;;;7.30;5.70;;;10.20;99.90;;;;;;5135742;28;20027;-72
2023/10/30 04:34:27;;;;;;;9.57;6.07;;;10.20;99.90;;;;;;5127634;28;20030;-73
2023/10/30 04:36:54;;;;;;;13.98;5.93;;;10.20;99.90;;;;;;5126086;28;20452;-72
2023/10/30 04:39:19;;;;;;;8.05;6.25;;;10.20;99.90;;;;;;5132968;28;20402;-73
2023/10/30 04:41:45;;;;;;;9.80;7.15;;;10.20;99.90;;;;;;5133573;28;20035;-73
2023/10/30 04:44:11;;;;;;;10.65;6.97;;;10.10;99.90;;;;;;5132958;28;20035;-75
2023/10/30 04:46:36;;;;;;;11.93;7.03;;;10.10;99.90;;;;;;5132960;28;20038;-74
2023/10/30 04:49:02;;;;;;;11.75;6.97;;;10.10;99.90;;;;;;5132513;28;20068;-73
2023/10/30 04:51:27;;;;;;;9.32;6.95;;;10.10;99.90;;;;;;5132772;28;20019;-73
2023/10/30 04:53:56;;;;;;;12.10;7.68;;;10.10;99.90;;;;;;5133637;28;20028;-73
2023/10/30 04:56:21;;;;;;;8.45;7.28;;;10.10;99.90;;;;;;5113860;28;20051;-73
2023/10/30 04:58:47;;;;;;;11.43;7.72;;;10.10;99.90;;;;;;5133179;27;20061;-73
2023/10/30 05:01:13;;;;;;;12.07;7.78;;;10.10;99.90;;;;;;5137138;27;20027;-76
2023/10/30 05:03:39;;;;;;;13.00;8.60;;;10.20;99.90;;;;;;5137026;27;20034;-73
2023/10/30 05:06:05;;;;;;;10.45;8.18;;;10.20;99.90;;;;;;5118803;27;20035;-73
2023/10/30 05:08:32;;;;;;;10.68;8.23;;;10.20;99.90;;;;;;5136322;27;20425;-73
2023/10/30 05:10:59;;;;;;;12.32;8.10;;;10.20;99.90;;;;;;5137085;27;20091;-73
2023/10/30 05:13:25;;;;;;;11.25;8.10;;;10.20;99.90;;;;;;5136221;27;20106;-73
2023/10/30 05:15:50;;;;;;;12.43;8.07;;;10.20;99.90;;;;;;5137042;27;20585;-73
2023/10/30 05:18:22;;;;;;;10.73;8.65;;;10.20;99.90;;;;;;5136757;27;20483;-73
2023/10/30 05:20:47;;;;;;;;;;;10.30;99.90;;;;;;5137351;27;20023;-73
2023/10/30 05:23:13;;;;;;;9.65;7.97;;;10.30;99.90;;;;;;5136894;27;19904;-73
2023/10/30 05:25:39;;;;;;;9.70;8.10;;;10.30;99.90;;;;;;5136915;27;20023;-73
2023/10/30 05:28:04;;;;;;;11.48;8.27;;;10.30;99.90;;;;;;5137279;27;20027;-73
2023/10/30 05:30:30;;;;;;;10.23;7.80;;;10.30;99.90;;;;;;5136250;27;20482;-74
2023/10/30 05:32:56;;;;;;;10.63;7.90;;;10.30;99.90;;;;;;5137075;27;20325;-72
2023/10/30 05:35:22;;;;;;;10.15;8.02;;;10.30;99.90;;;;;;5136523;27;20045;-72
2023/10/30 05:37:47;;;;;;;12.68;8.55;;;10.30;99.90;;;;;;5136539;27;20034;-74
2023/10/30 05:40:13;;;;;;;12.82;8.02;;;10.30;99.90;;;;;;5136493;27;20027;-73
2023/10/30 05:42:38;;;;;;;10.55;7.75;;;10.30;99.90;;;;;;5136322;27;20039;-73
2023/10/30 05:45:05;;;;;;;9.07;7.53;;;10.30;99.90;;;;;;5130677;27;20481;-73
2023/10/30 05:47:31;;;;;;;12.70;7.82;;;10.30;99.90;;;;;;5115960;28;20033;-74
2023/10/30 05:49:57;;;;;;;11.65;8.40;;;10.30;99.90;;;;;;5124278;27;20024;-73
2023/10/30 05:52:23;;;;;;;11.75;8.93;;;10.30;99.90;;;;;;5115505;28;20035;-74
2023/10/30 05:54:49;;;;;;;11.40;9.00;;;10.30;99.90;;;;;;5115958;28;20103;-72
2023/10/30 05:57:15;;;;;;;13.43;9.43;;;10.30;99.90;;;;;;5115471;28;20389;-74
2023/10/30 05:59:41;;;;;;;13.43;9.57;;;10.20;99.90;;;;;;5116161;28;20034;-72
2023/10/30 06:02:07;;;;;;;11.73;9.05;;;10.20;99.90;;;;;;5115644;28;20038;-72
2023/10/30 06:04:33;;;;;;;13.02;10.20;;;10.20;99.90;;;;;;5115335;28;20061;-71
2023/10/30 06:06:58;;;;;;;12.85;10.73;;;10.20;99.90;;;;;;5115343;28;20475;-71
2023/10/30 06:09:26;;;;;;;12.52;10.45;;;10.30;99.90;;;;;;5115261;28;20031;-71
2023/10/30 06:11:52;;;;;;;14.10;11.07;;;10.20;99.90;;;;;;5114653;28;20028;-71
2023/10/30 06:14:18;;;;;;;13.73;10.95;;;10.20;99.90;;;;;;5115136;28;20424;-73
2023/10/30 06:16:44;;;;;;;14.20;10.32;;;10.20;99.90;;;;;;5115394;28;20448;-71
2023/10/30 06:19:10;;;;;;;17.33;11.63;;;10.20;99.90;;;;;;5115379;28;20027;-74
2023/10/30 06:21:39;;;;;;;19.00;12.05;;;10.20;99.90;;;;;;5114945;28;20372;-74
2023/10/30 06:24:06;;;;;;;17.77;12.02;;;10.20;99.90;;;;;;5115312;28;20384;-73
2023/10/30 06:26:32;;;;;;;17.23;12.32;;;10.20;99.90;;;;;;5121485;27;20027;-73
2023/10/30 06:28:57;;;;;;;17.50;12.02;;;10.20;99.90;;;;;;5136035;27;20031;-73
2023/10/30 06:31:23;;;;;;;15.05;11.85;;;10.20;99.90;;;;;;5121348;27;20077;-73
2023/10/30 06:33:49;;;;;;;16.65;12.63;;;10.20;99.90;;;;;;5114921;28;20091;-74
2023/10/30 06:36:14;;;;;;;18.15;13.02;;;10.20;99.90;;;;;;5124603;27;20015;-74
2023/10/30 06:38:40;;;;;;;17.17;12.68;;;10.20;99.90;;;;;;5135119;27;20080;-74
2023/10/30 06:41:06;;;;;;;17.45;13.52;;;10.20;99.90;;;;;;5116851;27;20031;-75
2023/10/30 06:43:32;;;;;;;18.25;13.10;;;10.20;99.90;;;;;;5135065;27;20023;-74
2023/10/30 06:46:03;;;;;;;16.55;12.75;;;10.20;99.90;;;;;;5135214;27;20087;-72
2023/10/30 06:48:30;;;;;;;18.10;12.68;;;10.20;99.90;;;;;;5135024;27;20368;-73
2023/10/30 06:50:56;;;;;;;18.48;14.48;;;10.20;99.90;;;;;;5135523;27;20456;-73
2023/10/30 06:53:23;;;;;;;22.73;12.63;;;10.30;99.90;;;;;;5134460;27;20420;-73
2023/10/30 06:55:50;;;;;;;16.05;12.88;;;10.20;99.90;;;;;;5135146;27;20054;-73
2023/10/30 06:58:16;;;;;;;18.60;13.80;;;10.30;99.90;;;;;;5116479;27;20059;-72
2023/10/30 07:00:42;;;;;;;17.67;13.25;;;10.30;99.90;;;;;;5134684;27;20027;-73
2023/10/30 07:03:08;;;;;;;17.27;13.05;;;10.30;99.90;;;;;;5134657;27;20079;-73
2023/10/30 07:05:34;;;;;;;18.23;13.35;;;10.30;99.90;;;;;;5134218;27;20027;-74
2023/10/30 07:08:00;;;;;;;16.02;12.85;;;10.30;99.90;;;;;;5134779;27;20103;-75
2023/10/30 07:10:25;;;;;;;17.50;13.23;;;10.30;99.90;;;;;;5134476;27;20110;-73
2023/10/30 07:12:51;;;;;;;18.25;12.55;;;10.30;99.90;;;;;;5134548;27;20022;-73
2023/10/30 07:15:17;;;;;;;18.17;12.90;;;10.30;99.90;;;;;;5134898;27;20463;-73
2023/10/30 07:17:42;;;;;;;17.60;13.38;;;10.30;99.90;;;;;;5134280;27;20031;-73
2023/10/30 07:20:08;;;;;;;18.88;13.75;;;10.30;99.90;;;;;;5134724;27;20030;-73
2023/10/30 07:22:34;;;;;;;20.05;13.63;;;10.30;99.90;;;;;;5133856;27;20031;-73
2023/10/30 07:25:00;;;;;;;17.38;12.93;;;10.40;99.90;;;;;;5134741;27;20493;-74
2023/10/30 07:27:26;;;;;;;20.00;13.48;;;10.40;99.90;;;;;;5134325;27;20092;-73
2023/10/30 07:29:52;;;;;;;15.68;12.98;;;10.40;99.90;;;;;;5134709;27;20034;-73
2023/10/30 07:32:18;;;;;;;18.80;11.85;;;10.40;99.90;;;;;;5134584;27;20023;-73
2023/10/30 07:34:44;;;;;;;17.27;11.52;;;10.50;99.90;;;;;;5134195;27;20035;-74
2023/10/30 07:37:10;;;;;;;19.40;11.00;;;10.50;99.90;;;;;;5134592;27;20027;-74
2023/10/30 07:39:35;;;;;;;16.83;11.10;;;10.50;99.90;;;;;;5133933;27;20068;-74
2023/10/30 07:42:01;;;;;;;17.88;10.57;;;10.50;99.90;;;;;;5134936;27;20055;-74
2023/10/30 07:44:27;;;;;;;15.50;10.40;;;10.50;99.90;;;;;;5133587;27;20038;-74
2023/10/30 07:46:53;;;;;;;15.05;9.52;;;10.60;99.90;;;;;;5134196;27;20145;-74
2023/10/30 07:49:19;;;;;;;17.73;9.75;;;10.60;99.90;;;;;;5134417;27;20030;-74
2023/10/30 07:51:45;;;;;;;17.40;9.77;;;10.60;99.90;;;;;;5133895;27;20462;-74
2023/10/30 07:54:11;;;;;;;15.38;10.15;;;10.70;99.90;;;;;;5134139;27;20057;-74
2023/10/30 07:56:36;;;;;;;14.05;9.75;;;10.70;99.90;;;;;;5133384;27;20061;-74
2023/10/30 07:59:05;;;;;;;15.68;10.15;;;10.70;99.90;;;;;;5134521;27;20023;-73
2023/10/30 08:01:31;;;;;;;14.63;9.65;;;10.70;99.90;;;;;;5134165;27;20023;-74
2023/10/30 08:03:57;;;;;;;16.90;10.05;;;10.80;99.90;;;;;;5134806;27;20072;-74
2023/10/30 08:06:24;;;;;;;17.90;10.07;;;10.80;99.90;;;;;;5134353;27;20069;-74
2023/10/30 08:08:49;;;;;;;13.48;9.88;;;10.80;99.90;;;;;;5133851;27;20062;-74
2023/10/30 08:11:15;;;;;;;15.55;9.75;;;10.90;99.90;;;;;;5116143;27;20023;-74
2023/10/30 08:13:41;;;;;;;14.05;9.90;;;10.90;99.90;;;;;;5134197;27;20023;-74
2023/10/30 08:16:07;;;;;;;16.13;9.30;;;10.90;99.90;;;;;;5134298;27;20089;-74
2023/10/30 08:18:32;;;;;;;12.98;9.18;;;10.90;99.90;;;;;;5133870;27;20528;-74
2023/10/30 08:20:59;;;;;;;15.82;9.98;;;10.90;99.90;;;;;;5134274;27;20023;-74
2023/10/30 08:23:24;;;;;;;15.07;9.40;;;11.00;99.90;;;;;;5134405;28;20015;-74
2023/10/30 08:25:50;;;;;;;16.95;10.20;;;11.00;99.90;;;;;;5133497;28;20114;-74
2023/10/30 08:28:15;;;;;;;16.02;10.20;;;11.00;99.90;;;;;;5114931;28;20027;-73
2023/10/30 08:30:41;;;;;;;14.82;9.65;;;11.00;99.90;;;;;;5133461;28;20019;-73
2023/10/30 08:33:07;;;;;;;10.98;9.55;;;11.10;99.90;;;;;;5115312;28;20432;-74
2023/10/30 08:35:32;;;;;;;13.98;9.60;;;11.10;99.90;;;;;;5136985;27;20027;-73
2023/10/30 08:37:59;;;;;;;12.35;9.55;;;11.10;99.90;;;;;;5138098;27;20062;-73
2023/10/30 08:40:25;;;;;;;13.60;9.05;;;11.20;99.90;;;;;;5134401;27;20027;-74
2023/10/30 08:42:51;;;;;;;12.35;8.88;;;11.20;99.90;;;;;;5137223;27;20031;-73
2023/10/30 08:45:16;;;;;;;15.35;9.80;;;11.20;99.90;;;;;;5137602;27;20027;-73
2023/10/30 08:47:43;;;;;;;15.63;9.00;;;11.20;99.90;;;;;;5137343;27;20031;-74
2023/10/30 08:50:10;;;;;;;11.63;8.73;;;11.20;99.90;;;;;;5137790;27;20379;-73
2023/10/30 08:52:36;;;;;;;11.13;8.65;;;11.30;99.90;;;;;;5137290;27;20051;-73
2023/10/30 08:55:02;;;;;;;13.90;9.52;;;11.30;99.90;;;;;;5137724;27;20035;-73
2023/10/30 08:57:28;;;;;;;19.67;9.18;;;11.30;99.90;;;;;;5137466;27;20039;-73
2023/10/30 08:59:53;;;;;;;20.77;10.85;;;11.40;99.90;;;;;;5118692;27;20325;-73
2023/10/30 09:02:19;;;;;;;17.92;10.43;;;11.40;99.90;;;;;;5137424;27;20027;-73
2023/10/30 09:04:45;;;;;;;19.40;10.20;;;11.40;99.90;;;;;;5136462;27;20589;-74
2023/10/30 09:07:11;;;;;;;15.32;8.77;;;11.40;99.90;;;;;;5137408;27;20027;-74
2023/10/30 09:09:36;;;;;;;20.23;11.00;;;11.40;99.90;;;;;;5137007;27;20038;-74
2023/10/30 09:12:02;;;;;;;19.80;10.60;;;11.50;99.90;;;;;;5137343;27;20375;-74
2023/10/30 09:14:28;;;;;;;15.98;11.05;;;11.50;99.90;;;;;;5137283;27;20109;-74
2023/10/30 09:16:53;;;;;;;16.95;11.68;;;11.50;99.90;;;;;;5137354;27;20019;-73
2023/10/30 09:19:19;;;;;;;15.13;11.55;;;11.60;99.90;;;;;;5139420;27;20023;-73
2023/10/30 09:21:45;;;;;;;20.05;12.32;;;11.60;99.90;;;;;;5137405;27;20031;-74
2023/10/30 09:24:11;;;;;;;17.98;11.85;;;11.60;99.90;;;;;;5137035;27;20138;-74
2023/10/30 09:26:36;;;;;;;18.42;12.68;;;11.70;99.90;;;;;;5137168;27;20106;-73
2023/10/30 09:29:02;;;;;;;17.13;12.25;;;11.70;99.90;;;;;;5137188;27;20098;-73
2023/10/30 09:31:30;;;;;;;16.85;12.27;;;11.70;99.90;;;;;;5136911;27;20111;-73
2023/10/30 09:33:59;;;;;;;21.25;11.75;;;11.70;99.90;;;;;;5136396;27;20035;-73
2023/10/30 09:36:25;;;;;;;18.63;12.02;;;11.80;99.90;;;;;;5136781;27;20027;-73
2023/10/30 09:38:51;;;;;;;16.48;12.18;;;11.90;99.90;;;;;;5136422;27;20100;-73
2023/10/30 09:41:19;;;;;;;15.52;11.18;;;12.00;99.90;;;;;;5136879;27;20062;-73
2023/10/30 09:43:51;;;;;;;13.15;10.93;;;12.20;99.90;;;;;;5117633;27;20050;-73
2023/10/30 09:46:25;;;;;;;14.38;10.13;;;12.30;99.90;;;;;;5135110;27;20031;-73
2023/10/30 09:48:52;;;;;;;16.95;10.00;;;12.50;99.90;;;;;;5136209;27;20019;-73
2023/10/30 09:51:20;;;;;;;16.08;10.90;;;12.50;99.90;;;;;;5136106;27;20051;-73
2023/10/30 09:53:48;;;;;;;16.40;10.02;;;12.70;99.90;;;;;;5135563;27;20088;-73
2023/10/30 09:56:17;;;;;;;14.07;10.30;;;12.80;99.90;;;;;;5136390;27;20060;-74
2023/10/30 09:58:42;;;;;;;14.15;10.52;;;12.90;99.90;;;;;;5135802;27;20451;-73
2023/10/30 10:01:08;;;;;;;12.35;10.13;;;13.10;99.90;;;;;;5136158;27;20058;-74
2023/10/30 10:03:33;;;;;;;13.45;9.55;;;13.30;99.90;;;;;;5136302;27;20456;-74
2023/10/30 10:06:00;;;;;;;12.55;9.35;;;13.40;99.90;;;;;;5135446;27;20070;-73
2023/10/30 10:08:26;;;;;;;12.18;9.65;;;13.60;99.90;;;;;;5136074;27;20141;-73
2023/10/30 10:11:00;;;;;;;13.55;9.57;;;13.80;99.90;;;;;;5135333;27;20452;-74
2023/10/30 10:13:28;;;;;;;10.68;8.85;;;14.00;99.90;;;;;;5135944;27;20447;-73
2023/10/30 10:15:54;;;;;;;17.23;9.23;;;14.10;99.90;;;;;;5135547;27;20027;-74
2023/10/30 10:18:24;;;;;;;14.02;9.73;;;14.30;99.90;;;;;;5136107;27;20024;-73
2023/10/30 10:21:04;;;;;;;17.70;9.20;;;14.40;99.90;;;;;;5135201;27;20027;-74
2023/10/30 10:23:34;;;;;;;12.68;8.88;;;14.60;99.90;;;;;;5117481;27;20122;-74
2023/10/30 10:26:13;;;;;;;12.77;8.60;;;14.70;99.90;;;;;;5135302;27;20034;-74
2023/10/30 10:28:39;;;;;;;13.57;8.73;;;14.80;99.90;;;;;;5135319;27;20072;-74
2023/10/30 10:31:05;;;;;;;10.38;8.10;;;15.00;99.90;;;;;;5135832;27;20329;-74
2023/10/30 10:33:32;;;;;;;12.48;8.07;;;15.20;99.90;;;;;;5135624;27;20068;-73
2023/10/30 10:36:01;;;;;;;12.63;9.02;;;15.30;99.90;;;;;;5134223;27;20218;-73
2023/10/30 10:38:27;;;;;;;14.43;8.40;;;15.40;99.90;;;;;;5117124;27;20445;-73
2023/10/30 10:40:54;;;;;;;13.98;7.95;;;15.50;99.90;;;;;;5114900;28;20106;-75
2023/10/30 10:43:21;;;;;;;11.65;8.43;;;15.60;99.90;;;;;;5114825;28;20028;-73
2023/10/30 10:45:51;;;;;;;12.15;9.25;;;15.60;99.90;;;;;;5114146;28;20063;-73
2023/10/30 10:48:18;;;;;;;12.35;9.25;;;15.70;99.90;;;;;;5114585;28;20426;-74
2023/10/30 10:50:44;;;;;;;13.27;8.40;;;15.80;99.90;;;;;;5114035;28;20076;-74
2023/10/30 10:53:11;;;;;;;12.32;8.10;;;15.80;99.90;;;;;;5114689;28;20325;-73
2023/10/30 10:55:44;;;;;;;11.70;8.18;;;15.90;99.90;;;;;;5105147;27;20023;-73
2023/10/30 10:58:12;;;;;;;13.00;8.52;;;15.90;99.90;;;;;;5134544;27;20055;-74
2023/10/30 11:00:45;;;;;;;9.85;7.90;;;16.00;99.90;;;;;;5135145;27;20027;-73
2023/10/30 11:03:11;;;;;;;10.18;8.23;;;16.10;99.90;;;;;;5135092;27;20075;-73
2023/10/30 11:05:37;;;;;;;16.40;8.00;;;16.10;99.90;;;;;;5134673;27;20106;-74
2023/10/30 11:08:32;;;;;;;11.18;8.82;;;16.10;99.90;;;;;;5134433;27;20027;-74
2023/10/30 11:11:30;;;;;;;10.23;7.60;;;16.10;99.90;;;;;;5134274;27;20034;-74
2023/10/30 11:14:33;;;;;;;12.57;9.13;;;16.20;99.90;;;;;;5134318;27;20034;-74
2023/10/30 11:17:03;;;;;;;14.50;8.00;;;16.30;99.90;;;;;;5134108;27;20076;-74
2023/10/30 11:19:31;;;;;;;14.88;8.73;;;16.40;99.90;;;;;;5134528;27;20531;-73
2023/10/30 11:21:56;;;;;;;13.88;8.25;;;16.40;99.90;;;;;;5134406;27;20082;-75
2023/10/30 11:24:40;;;;;;;15.95;8.57;;;16.50;99.90;;;;;;5134722;27;20479;-75
2023/10/30 11:27:25;;;;;;;9.13;7.15;;;16.60;99.90;;;;;;5134091;27;20031;-73
2023/10/30 11:30:22;;;;;;;14.43;7.78;;;16.60;99.90;;;;;;5133805;27;20155;-73
2023/10/30 11:32:47;;;;;;;12.45;8.27;;;16.70;99.90;;;;;;5132981;27;20041;-73
2023/10/30 11:35:13;;;;;;;9.52;7.32;;;16.70;99.90;;;;;;5134035;27;20114;-73
2023/10/30 11:37:40;;;;;;;14.00;7.53;;;16.80;99.90;;;;;;5134262;27;20019;-73
2023/10/30 11:40:09;;;;;;;9.50;6.85;;;16.90;99.90;;;;;;5133637;27;20054;-73
2023/10/30 11:42:40;;;;;;;12.20;7.53;;;16.90;99.90;;;;;;5133984;27;20573;-74
2023/10/30 11:45:26;;;;;;;11.25;7.45;;;17.00;99.90;;;;;;5133473;27;20039;-73
2023/10/30 11:47:59;;;;;;;13.90;7.63;;;16.90;99.90;;;;;;5133524;27;20035;-73
2023/10/30 11:50:29;;;;;;;13.85;7.97;;;16.90;99.90;;;;;;5133748;27;20058;-73
2023/10/30 11:52:58;;;;;;;11.77;7.83;;;16.90;99.90;;;;;;5133269;27;20079;-74
2023/10/30 11:55:25;;;;;;;9.82;7.43;;;16.90;99.90;;;;;;5133466;27;20053;-74
2023/10/30 11:57:51;;;;;;;12.82;7.90;;;16.80;99.90;;;;;;5133083;27;20460;-73
2023/10/30 12:00:18;;;;;;;7.90;6.50;;;16.80;99.90;;;;;;5133793;27;20031;-73
2023/10/30 12:02:46;;;;;;;9.15;6.35;;;16.80;99.90;;;;;;5133894;27;20031;-73
2023/10/30 12:05:12;;;;;;;12.10;7.60;;;16.80;99.90;;;;;;5133840;27;20024;-73
2023/10/30 12:07:38;;;;;;;14.50;6.80;;;16.80;99.90;;;;;;5133788;27;20456;-74
2023/10/30 12:10:04;;;;;;;11.65;6.82;;;16.80;99.90;;;;;;5132572;27;20306;-73
2023/10/30 12:12:31;;;;;;;9.48;6.50;;;16.70;99.90;;;;;;5134000;27;20027;-73
2023/10/30 12:14:58;;;;;;;9.48;6.78;;;16.70;99.90;;;;;;5133400;27;20054;-73
2023/10/30 12:17:24;;;;;;;12.93;5.88;;;16.60;99.90;;;;;;5133679;27;20027;-73
2023/10/30 12:19:49;;;;;;;19.63;7.82;;;16.60;99.90;;;;;;5133348;27;20034;-73
2023/10/30 12:22:15;;;;;;;10.40;6.40;;;16.60;99.90;;;;;;5133792;27;20031;-74
2023/10/30 12:24:42;;;;;;;11.45;6.90;;;16.60;99.90;;;;;;5133940;27;20455;-73
2023/10/30 12:27:08;;;;;;;8.02;5.43;;;16.60;99.90;;;;;;5134632;28;20038;-72
2023/10/30 12:29:34;;;;;;;10.27;6.53;;;16.70;99.90;;;;;;5133815;28;20023;-75
2023/10/30 12:32:04;;;;;;;10.73;5.43;;;16.70;99.90;;;;;;5133303;28;20106;-75
2023/10/30 12:34:34;;;;;;;9.52;5.90;;;16.70;99.90;;;;;;5133906;28;20028;-74